Time;durP1;ratioP1;P1;durP2;ratioP2;P2;SDS_P1;SDS_P2;PMS_P1;PMS_P2;Temp;Humidity;BMP_temperature;BMP_pressure;BME280_temperature;BME280_humidity;BME280_pressure;Samples;Min_cycle;Max_cycle;Signal;HPM_P1;HPM_P2
2023/08/11 00:02:55;;;;;;;13.52;2.45;;;10.50;98.20;;;;;;5008230;28;20056;-88
2023/08/11 00:05:22;;;;;;;7.18;2.40;;;10.50;98.20;;;;;;4994875;28;20135;-88
2023/08/11 00:07:54;;;;;;;12.63;2.63;;;10.50;98.20;;;;;;4998367;28;20042;-88
2023/08/11 00:10:21;;;;;;;7.45;2.20;;;10.60;98.20;;;;;;4993037;28;20515;-88
2023/08/11 00:12:48;;;;;;;7.25;1.98;;;10.60;98.30;;;;;;5011304;28;20126;-88
2023/08/11 00:15:15;;;;;;;10.05;2.38;;;10.70;98.30;;;;;;5017914;28;20065;-88
2023/08/11 00:17:42;;;;;;;8.00;2.20;;;10.70;98.10;;;;;;5011189;28;20052;-88
2023/08/11 00:20:09;;;;;;;6.75;2.30;;;10.70;98.10;;;;;;4996861;28;20413;-88
2023/08/11 00:22:37;;;;;;;7.57;2.22;;;10.70;98.40;;;;;;4999598;28;20046;-88
2023/08/11 00:25:05;;;;;;;7.43;2.50;;;10.80;98.10;;;;;;4995070;28;20073;-88
2023/08/11 00:27:32;;;;;;;5.18;2.20;;;10.80;98.30;;;;;;5022154;28;20046;-89
2023/08/11 00:30:00;;;;;;;6.63;2.15;;;10.80;98.50;;;;;;4995907;28;20057;-89
2023/08/11 00:32:28;;;;;;;3.85;2.00;;;10.90;98.30;;;;;;5016185;28;20060;-88
2023/08/11 00:34:55;;;;;;;10.25;2.22;;;10.90;98.20;;;;;;5018248;28;20058;-88
2023/08/11 00:37:22;;;;;;;9.85;2.38;;;11.00;98.20;;;;;;5014214;28;20758;-89
2023/08/11 00:39:51;;;;;;;6.20;2.17;;;11.00;98.30;;;;;;5018936;28;20056;-89
2023/08/11 00:42:18;;;;;;;4.72;1.92;;;11.00;98.40;;;;;;4995813;28;20882;-88
2023/08/11 00:44:45;;;;;;;6.03;2.30;;;11.00;98.10;;;;;;5018060;28;20119;-89
2023/08/11 00:47:12;;;;;;;4.03;2.10;;;11.10;98.10;;;;;;4997556;28;20057;-88
2023/08/11 00:49:40;;;;;;;6.85;1.90;;;11.10;98.10;;;;;;5012614;28;20069;-89
2023/08/11 00:52:07;;;;;;;3.60;1.88;;;11.10;98.30;;;;;;5013151;28;20050;-89
2023/08/11 00:54:34;;;;;;;7.30;2.40;;;11.10;98.50;;;;;;5019669;28;20099;-89
2023/08/11 00:57:01;;;;;;;7.45;1.80;;;11.10;98.30;;;;;;5021338;28;20557;-89
2023/08/11 00:59:28;;;;;;;7.82;1.83;;;11.10;98.30;;;;;;4998127;28;20494;-88
2023/08/11 01:01:55;;;;;;;8.40;1.92;;;11.10;98.10;;;;;;5012395;28;20046;-88
2023/08/11 01:04:22;;;;;;;6.35;2.22;;;11.10;97.90;;;;;;5020327;28;20136;-89
2023/08/11 01:07:04;;;;;;;5.85;2.45;;;11.10;98.30;;;;;;4997918;28;20066;-88
2023/08/11 01:09:54;;;;;;;9.60;2.22;;;11.10;98.10;;;;;;5006637;28;20077;-88
2023/08/11 01:12:47;;;;;;;6.13;2.20;;;11.10;98.10;;;;;;5012758;28;20064;-88
2023/08/11 01:15:24;;;;;;;8.77;2.28;;;11.10;98.40;;;;;;5003376;28;20089;-89
2023/08/11 01:17:52;;;;;;;13.68;2.47;;;11.20;98.10;;;;;;5018844;28;20077;-88
2023/08/11 01:20:20;;;;;;;3.90;1.70;;;11.20;98.00;;;;;;4993854;28;20045;-87
2023/08/11 01:22:54;;;;;;;6.65;2.00;;;11.20;98.00;;;;;;5016266;28;20045;-89
2023/08/11 01:25:23;;;;;;;5.20;1.98;;;11.20;97.90;;;;;;5020499;28;20056;-88
2023/08/11 01:27:57;;;;;;;8.15;2.35;;;11.20;97.80;;;;;;4996292;28;20060;-88
2023/08/11 01:30:25;;;;;;;6.07;1.80;;;11.20;97.80;;;;;;5011977;28;20108;-88
2023/08/11 01:32:53;;;;;;;8.13;2.15;;;11.20;98.10;;;;;;5012821;28;20054;-88
2023/08/11 01:35:21;;;;;;;7.30;2.10;;;11.20;98.00;;;;;;5010125;28;20065;-88
2023/08/11 01:38:08;;;;;;;7.07;2.60;;;11.20;97.80;;;;;;5002591;28;20082;-89
2023/08/11 01:40:35;;;;;;;6.65;2.50;;;11.20;97.80;;;;;;5005321;28;20520;-88
2023/08/11 01:43:05;;;;;;;7.18;2.22;;;11.10;97.60;;;;;;4988759;28;20053;-88
2023/08/11 01:45:33;;;;;;;11.27;1.77;;;11.10;97.60;;;;;;5009692;28;20076;-88
2023/08/11 01:48:01;;;;;;;3.78;2.20;;;11.10;97.80;;;;;;5010475;28;20133;-89
2023/08/11 01:50:29;;;;;;;7.43;2.55;;;11.00;97.70;;;;;;5011871;28;20057;-88
2023/08/11 01:52:56;;;;;;;5.43;2.08;;;11.00;97.70;;;;;;5010879;28;20041;-88
2023/08/11 01:55:24;;;;;;;8.63;2.45;;;10.90;97.80;;;;;;4994433;28;20057;-88
2023/08/11 01:57:53;;;;;;;9.20;2.08;;;10.80;98.00;;;;;;5011585;28;20045;-88
2023/08/11 02:00:26;;;;;;;5.47;2.33;;;10.80;98.60;;;;;;4995601;28;20058;-88
2023/08/11 02:03:08;;;;;;;12.55;2.83;;;10.70;98.90;;;;;;5107946;27;20445;-87
2023/08/11 02:05:35;;;;;;;7.05;2.40;;;10.70;99.40;;;;;;5106569;28;20044;-87
2023/08/11 02:08:02;;;;;;;10.23;2.20;;;10.70;99.60;;;;;;5103691;28;20054;-87
2023/08/11 02:10:29;;;;;;;10.57;2.10;;;10.60;99.30;;;;;;5106728;28;20194;-87
2023/08/11 02:12:56;;;;;;;9.07;2.40;;;10.50;99.30;;;;;;5107886;28;20623;-88
2023/08/11 02:15:23;;;;;;;5.43;2.17;;;10.40;99.30;;;;;;5102859;28;20079;-87
2023/08/11 02:17:50;;;;;;;6.00;2.13;;;10.40;99.50;;;;;;5106770;28;20126;-89
2023/08/11 02:22:50;;;;;;;10.45;2.60;;;10.30;99.80;;;;;;5105843;28;20046;-87
2023/08/11 02:25:17;;;;;;;5.35;2.45;;;10.30;99.90;;;;;;5107268;28;20073;-87
2023/08/11 02:27:44;;;;;;;14.80;2.80;;;10.30;100.00;;;;;;5105538;28;20040;-87
2023/08/11 02:30:12;;;;;;;14.02;2.40;;;10.30;100.00;;;;;;5104477;28;20139;-88
2023/08/11 02:32:40;;;;;;;5.53;2.42;;;10.20;100.00;;;;;;5106165;28;20080;-88
2023/08/11 02:35:07;;;;;;;7.95;2.42;;;10.20;100.00;;;;;;5105801;28;20055;-86
2023/08/11 02:37:34;;;;;;;7.80;2.70;;;10.20;100.00;;;;;;5108208;28;20050;-86
2023/08/11 02:40:01;;;;;;;12.95;2.67;;;10.20;100.00;;;;;;5102536;28;20097;-86
2023/08/11 02:42:28;;;;;;;16.83;4.25;;;10.20;100.00;;;;;;5107945;28;20128;-87
2023/08/11 02:44:55;;;;;;;12.65;4.78;;;10.20;100.00;;;;;;5106391;28;20089;-86
2023/08/11 02:47:22;;;;;;;8.05;2.80;;;10.20;100.00;;;;;;5108046;28;20067;-87
2023/08/11 02:49:49;;;;;;;9.50;2.70;;;10.20;100.00;;;;;;5107901;28;20086;-87
2023/08/11 02:52:16;;;;;;;10.90;3.03;;;10.20;100.00;;;;;;5109062;28;20044;-87
2023/08/11 02:55:08;;;;;;;8.30;2.50;;;10.20;100.00;;;;;;5106243;28;20052;-87
2023/08/11 02:57:35;;;;;;;8.55;2.38;;;10.10;100.00;;;;;;5096679;28;20044;-76
2023/08/11 03:00:09;;;;;;;9.85;2.80;;;10.10;100.00;;;;;;5098555;28;20566;-77
2023/08/11 03:02:36;;;;;;;8.18;2.35;;;10.10;100.00;;;;;;5098799;28;20078;-77
2023/08/11 03:05:07;;;;;;;9.38;2.80;;;10.00;100.00;;;;;;5094621;28;20153;-77
2023/08/11 03:07:38;;;;;;;5.00;2.47;;;10.00;100.00;;;;;;5099327;28;20043;-76
2023/08/11 03:10:06;;;;;;;6.07;2.72;;;9.90;100.00;;;;;;5097410;28;20044;-77
2023/08/11 03:12:33;;;;;;;4.10;2.45;;;9.90;100.00;;;;;;5087043;28;20978;-77
2023/08/11 03:15:00;;;;;;;8.63;3.13;;;9.80;100.00;;;;;;5076708;28;20062;-77
2023/08/11 03:17:27;;;;;;;4.03;2.38;;;9.80;100.00;;;;;;5082128;28;20048;-77
2023/08/11 03:19:54;;;;;;;9.45;2.40;;;9.80;100.00;;;;;;5081903;28;20074;-77
2023/08/11 03:22:21;;;;;;;7.95;2.17;;;9.70;100.00;;;;;;5083916;28;20059;-76
2023/08/11 03:24:48;;;;;;;7.88;2.50;;;9.70;100.00;;;;;;5083771;28;20044;-76
2023/08/11 03:27:16;;;;;;;9.00;2.78;;;9.60;100.00;;;;;;5085492;28;20137;-76
2023/08/11 03:29:43;;;;;;;9.30;2.38;;;9.60;100.00;;;;;;5084534;28;20068;-76
2023/08/11 03:32:09;;;;;;;11.93;3.30;;;9.50;100.00;;;;;;5083984;28;20127;-77
2023/08/11 03:34:37;;;;;;;4.90;2.97;;;9.50;100.00;;;;;;5079314;28;20044;-77
2023/08/11 03:37:05;;;;;;;7.03;2.65;;;9.50;100.00;;;;;;5084117;28;20106;-77
2023/08/11 03:39:32;;;;;;;8.70;2.72;;;9.60;100.00;;;;;;5074935;28;20145;-76
2023/08/11 03:41:59;;;;;;;6.55;2.47;;;9.50;100.00;;;;;;5081151;28;20512;-77
2023/08/11 03:44:25;;;;;;;12.68;2.50;;;9.50;100.00;;;;;;5084845;28;20472;-77
2023/08/11 03:46:52;;;;;;;5.85;2.58;;;9.50;100.00;;;;;;5084995;28;20772;-76
2023/08/11 03:49:19;;;;;;;6.63;2.42;;;9.50;100.00;;;;;;5081189;28;20049;-76
2023/08/11 03:51:46;;;;;;;14.50;2.65;;;9.50;100.00;;;;;;5080174;28;20059;-76
2023/08/11 03:54:13;;;;;;;12.23;2.85;;;9.40;100.00;;;;;;5082061;28;20051;-76
2023/08/11 03:56:40;;;;;;;6.85;2.80;;;9.50;100.00;;;;;;5080124;28;20056;-76
2023/08/11 03:59:07;;;;;;;9.60;2.65;;;9.40;100.00;;;;;;5081422;28;20737;-76
2023/08/11 04:01:34;;;;;;;7.05;2.20;;;9.40;100.00;;;;;;5089348;22;21772;-86
2023/08/11 04:04:01;;;;;;;13.98;3.08;;;9.40;100.00;;;;;;5054600;28;20113;-86
2023/08/11 04:10:10;;;;;;;6.97;2.38;;;9.40;100.00;;;;;;5022200;28;20054;-76
2023/08/11 04:12:37;;;;;;;8.30;3.00;;;9.40;100.00;;;;;;5005043;28;20052;-76
2023/08/11 04:15:05;;;;;;;7.82;2.95;;;9.40;100.00;;;;;;5029899;28;20115;-77
2023/08/11 04:17:33;;;;;;;10.75;2.92;;;9.40;100.00;;;;;;5004762;28;20134;-76
2023/08/11 04:20:01;;;;;;;11.85;3.03;;;9.50;100.00;;;;;;5000344;28;20059;-77
2023/08/11 04:22:28;;;;;;;6.43;2.47;;;9.50;100.00;;;;;;5022685;28;20123;-76
2023/08/11 04:25:07;;;;;;;7.13;2.80;;;9.50;100.00;;;;;;5022183;28;20080;-76
2023/08/11 04:27:34;;;;;;;10.82;2.75;;;9.50;100.00;;;;;;5004000;28;20045;-76
2023/08/11 04:30:02;;;;;;;7.45;2.60;;;9.50;100.00;;;;;;5010006;28;20049;-86
2023/08/11 04:32:29;;;;;;;9.00;2.80;;;9.50;100.00;;;;;;5013862;28;20049;-86
2023/08/11 04:34:56;;;;;;;11.15;2.85;;;9.60;100.00;;;;;;5030808;28;20049;-87
2023/08/11 04:37:23;;;;;;;9.85;2.80;;;9.60;100.00;;;;;;5024395;28;20057;-85
2023/08/11 04:39:50;;;;;;;17.48;3.00;;;9.60;100.00;;;;;;5031140;28;20049;-86
2023/08/11 04:42:19;;;;;;;5.88;2.83;;;9.60;100.00;;;;;;5031094;28;20053;-86
2023/08/11 04:44:46;;;;;;;7.43;2.47;;;9.70;100.00;;;;;;5031460;28;20409;-87
2023/08/11 04:47:13;;;;;;;19.15;3.20;;;9.70;100.00;;;;;;5031083;28;20103;-86
2023/08/11 04:49:41;;;;;;;9.63;3.00;;;9.80;100.00;;;;;;5031361;28;20124;-87
2023/08/11 04:52:09;;;;;;;10.63;3.53;;;9.80;100.00;;;;;;5030740;28;20049;-88
2023/08/11 04:54:36;;;;;;;7.32;3.00;;;9.80;100.00;;;;;;5031645;28;20049;-86
2023/08/11 04:57:03;;;;;;;16.30;3.40;;;9.80;100.00;;;;;;5026373;28;20061;-87
2023/08/11 04:59:31;;;;;;;6.22;2.78;;;9.90;100.00;;;;;;5031315;28;20061;-87
2023/08/11 05:01:58;;;;;;;7.55;2.90;;;9.90;100.00;;;;;;5030692;28;20132;-87
2023/08/11 05:04:26;;;;;;;5.38;2.55;;;10.00;100.00;;;;;;5030522;28;20049;-90
2023/08/11 05:06:53;;;;;;;10.80;2.80;;;10.00;100.00;;;;;;5024479;28;20053;-89
2023/08/11 05:09:19;;;;;;;8.27;2.80;;;10.00;100.00;;;;;;5030410;28;20077;-81
2023/08/11 05:11:46;;;;;;;14.65;2.97;;;10.00;100.00;;;;;;5010996;28;20057;-86
2023/08/11 05:14:15;;;;;;;8.43;2.83;;;10.10;100.00;;;;;;5012589;28;20053;-84
2023/08/11 05:16:42;;;;;;;12.02;2.65;;;10.10;100.00;;;;;;5034354;28;20103;-85
2023/08/11 05:19:09;;;;;;;11.77;2.97;;;10.20;100.00;;;;;;5012653;28;20901;-85
2023/08/11 05:21:37;;;;;;;8.23;3.60;;;10.20;100.00;;;;;;5011903;28;20464;-85
2023/08/11 05:24:10;;;;;;;15.32;3.28;;;10.30;100.00;;;;;;5025815;28;20049;-83
2023/08/11 05:26:38;;;;;;;10.68;3.75;;;10.40;100.00;;;;;;5009352;28;20045;-77
2023/08/11 05:29:05;;;;;;;14.50;4.13;;;10.50;100.00;;;;;;5009485;28;20085;-80
2023/08/11 05:31:35;;;;;;;8.98;3.80;;;10.50;100.00;;;;;;5001769;28;20478;-84
2023/08/11 05:34:02;;;;;;;5.53;2.75;;;10.70;100.00;;;;;;5021864;28;21203;-81
2023/08/11 05:36:29;;;;;;;8.68;3.05;;;10.80;99.40;;;;;;5006785;28;20045;-76
2023/08/11 05:38:56;;;;;;;11.45;3.17;;;10.90;99.20;;;;;;5030022;28;20099;-79
2023/08/11 05:41:23;;;;;;;9.13;3.13;;;11.00;98.90;;;;;;5030355;28;20077;-79
2023/08/11 05:43:50;;;;;;;10.40;2.97;;;11.10;98.30;;;;;;5012331;28;20131;-80
2023/08/11 05:46:16;;;;;;;6.70;2.85;;;11.20;97.90;;;;;;5012250;28;20053;-82
2023/08/11 05:48:48;;;;;;;7.38;2.60;;;11.40;97.90;;;;;;5028769;28;20041;-80
2023/08/11 05:51:16;;;;;;;4.65;2.85;;;11.50;97.80;;;;;;5011376;28;20048;-79
2023/08/11 05:53:43;;;;;;;7.50;2.80;;;11.60;97.40;;;;;;5025902;28;20074;-79
2023/08/11 05:56:10;;;;;;;7.90;3.17;;;11.70;97.10;;;;;;5029162;28;20168;-84
2023/08/11 05:58:36;;;;;;;8.50;2.65;;;11.80;96.40;;;;;;5014151;28;20608;-84
2023/08/11 06:01:03;;;;;;;11.13;2.55;;;11.90;95.90;;;;;;5012449;28;20555;-84
2023/08/11 06:03:30;;;;;;;9.38;2.67;;;12.10;96.10;;;;;;5030243;28;20125;-84
2023/08/11 06:06:07;;;;;;;5.38;2.50;;;12.20;95.80;;;;;;5009271;28;20540;-84
2023/08/11 06:08:34;;;;;;;9.20;2.50;;;12.40;95.80;;;;;;5021883;28;20509;-84
2023/08/11 06:11:01;;;;;;;12.35;2.47;;;12.50;95.80;;;;;;5012577;28;20458;-85
2023/08/11 06:13:28;;;;;;;11.52;2.60;;;12.70;95.10;;;;;;5008887;28;20085;-85
2023/08/11 06:15:55;;;;;;;5.25;2.22;;;12.90;95.00;;;;;;5011307;28;20465;-85
2023/08/11 06:18:22;;;;;;;12.25;2.17;;;13.20;93.70;;;;;;5011421;28;20049;-86
2023/08/11 06:20:49;;;;;;;7.03;2.22;;;13.50;94.10;;;;;;5027867;28;20624;-84
2023/08/11 06:23:16;;;;;;;8.20;2.20;;;13.80;92.80;;;;;;5025203;28;20049;-84
2023/08/11 06:25:43;;;;;;;9.93;2.45;;;14.30;90.90;;;;;;5013059;28;20135;-85
2023/08/11 06:28:10;;;;;;;5.40;1.55;;;14.80;88.90;;;;;;5011941;28;20076;-84
2023/08/11 06:30:37;;;;;;;5.00;1.35;;;15.50;83.70;;;;;;5009707;28;20725;-84
2023/08/11 06:33:04;;;;;;;3.88;1.25;;;16.20;80.10;;;;;;5030161;28;20061;-83
2023/08/11 06:35:32;;;;;;;1.20;0.82;;;16.80;79.00;;;;;;5030053;28;20049;-84
2023/08/11 06:37:59;;;;;;;6.40;1.05;;;17.50;75.90;;;;;;5023214;28;20107;-83
2023/08/11 06:40:26;;;;;;;5.43;1.35;;;18.20;74.20;;;;;;5030167;28;20046;-83
2023/08/11 06:42:53;;;;;;;3.80;1.20;;;18.80;70.00;;;;;;5025149;28;20504;-84
2023/08/11 06:45:20;;;;;;;7.93;1.70;;;19.40;68.90;;;;;;5012203;28;20107;-84
2023/08/11 06:47:47;;;;;;;6.75;0.98;;;20.00;67.70;;;;;;5025629;28;20123;-84
2023/08/11 06:50:14;;;;;;;5.70;1.00;;;20.40;66.80;;;;;;5027702;28;20095;-84
2023/08/11 06:52:41;;;;;;;8.98;1.23;;;20.70;63.30;;;;;;5016852;28;20072;-84
2023/08/11 06:55:08;;;;;;;8.45;1.00;;;21.10;62.90;;;;;;5029863;28;20077;-85
2023/08/11 06:57:36;;;;;;;7.05;1.00;;;21.20;63.20;;;;;;5008573;28;20122;-84
2023/08/11 07:00:07;;;;;;;1.85;0.57;;;21.10;64.30;;;;;;5025549;28;20748;-85
2023/08/11 07:02:35;;;;;;;4.47;1.00;;;21.20;62.30;;;;;;5034080;28;20052;-83
2023/08/11 07:05:03;;;;;;;4.72;1.20;;;21.20;64.20;;;;;;5008166;28;20053;-83
2023/08/11 07:07:30;;;;;;;7.00;2.00;;;21.40;62.30;;;;;;5033601;28;20080;-81
2023/08/11 07:09:57;;;;;;;5.32;1.60;;;21.50;61.60;;;;;;5015702;28;20057;-83
2023/08/11 07:12:29;;;;;;;5.22;1.00;;;21.70;61.30;;;;;;5014224;28;20089;-82
2023/08/11 07:14:56;;;;;;;3.22;0.93;;;22.10;62.50;;;;;;5031913;28;20050;-82
2023/08/11 07:17:23;;;;;;;7.03;1.00;;;22.40;60.50;;;;;;5028065;28;20083;-79
2023/08/11 07:19:50;;;;;;;4.45;0.90;;;23.00;58.60;;;;;;5011931;28;20057;-78
2023/08/11 07:22:17;;;;;;;3.50;1.00;;;23.40;57.20;;;;;;5031070;28;20656;-80
2023/08/11 07:24:44;;;;;;;2.88;1.10;;;23.80;57.10;;;;;;5013278;28;20124;-80
2023/08/11 07:27:11;;;;;;;6.78;1.13;;;24.40;54.60;;;;;;5013833;28;20084;-79
2023/08/11 07:29:38;;;;;;;3.33;0.90;;;24.70;53.90;;;;;;5029183;28;20107;-79
2023/08/11 07:32:05;;;;;;;1.73;0.70;;;24.90;53.20;;;;;;5027617;28;20129;-79
2023/08/11 07:34:31;;;;;;;6.25;1.25;;;25.70;53.70;;;;;;5008428;28;20042;-79
2023/08/11 07:37:00;;;;;;;6.05;1.45;;;25.90;52.50;;;;;;5008313;28;20133;-80
2023/08/11 07:39:28;;;;;;;4.50;1.27;;;25.90;51.40;;;;;;5030176;28;20224;-79
2023/08/11 07:41:56;;;;;;;6.47;0.98;;;26.00;52.50;;;;;;5029049;28;20076;-79
2023/08/11 07:44:22;;;;;;;6.65;1.20;;;26.50;52.50;;;;;;5019771;28;20156;-87
2023/08/11 07:46:51;;;;;;;5.80;1.17;;;26.80;49.80;;;;;;5024614;28;20083;-77
2023/08/11 07:49:18;;;;;;;5.70;1.10;;;27.10;50.50;;;;;;5024872;28;20056;-77
2023/08/11 07:51:45;;;;;;;3.75;1.23;;;26.60;51.80;;;;;;5002325;28;20923;-77
2023/08/11 07:54:13;;;;;;;7.22;1.30;;;26.90;50.10;;;;;;5022021;28;20064;-78
2023/08/11 07:56:40;;;;;;;3.67;1.33;;;26.80;50.00;;;;;;5021322;28;20064;-78
2023/08/11 07:59:07;;;;;;;9.32;1.27;;;25.80;51.60;;;;;;5021952;28;20152;-84
2023/08/11 08:01:36;;;;;;;9.10;1.55;;;25.20;52.90;;;;;;5021855;28;20057;-79
2023/08/11 08:04:04;;;;;;;5.95;1.23;;;24.90;52.90;;;;;;5006537;28;20053;-79
2023/08/11 08:06:31;;;;;;;6.07;2.10;;;24.30;53.00;;;;;;5023978;28;20516;-80
2023/08/11 08:08:59;;;;;;;2.97;1.25;;;23.70;54.00;;;;;;5029970;28;20138;-80
2023/08/11 08:11:26;;;;;;;6.03;1.33;;;23.40;54.60;;;;;;5029547;28;20505;-81
2023/08/11 08:13:53;;;;;;;4.88;1.48;;;23.20;54.90;;;;;;5029838;28;20072;-80
2023/08/11 08:16:20;;;;;;;5.07;1.20;;;23.00;55.50;;;;;;5026766;28;20510;-80
2023/08/11 08:18:47;;;;;;;6.18;1.13;;;22.90;56.40;;;;;;5030718;28;20056;-81
2023/08/11 08:21:14;;;;;;;4.45;1.45;;;22.60;57.10;;;;;;5011787;28;20077;-82
2023/08/11 08:23:41;;;;;;;75.82;7.68;;;22.30;58.50;;;;;;5008579;28;20049;-81
2023/08/11 08:26:09;;;;;;;14.52;2.25;;;22.10;58.90;;;;;;5012755;28;20119;-83
2023/08/11 08:28:37;;;;;;;3.85;1.50;;;21.90;59.10;;;;;;5029951;28;20092;-83
2023/08/11 08:31:06;;;;;;;12.25;1.45;;;21.70;59.60;;;;;;5029256;28;20473;-83
2023/08/11 08:33:33;;;;;;;56.58;4.70;;;21.60;60.00;;;;;;5029182;28;20084;-83
2023/08/11 08:36:00;;;;;;;5.85;1.90;;;21.50;60.70;;;;;;5028278;28;20514;-81
2023/08/11 08:38:30;;;;;;;2.28;1.05;;;21.50;61.80;;;;;;5012339;28;20065;-81
2023/08/11 08:40:57;;;;;;;2.95;1.67;;;21.30;61.10;;;;;;5027772;28;20136;-81
2023/08/11 08:43:25;;;;;;;3.30;1.00;;;21.20;62.90;;;;;;5024880;28;20080;-81
2023/08/11 08:45:53;;;;;;;2.40;1.00;;;21.20;63.70;;;;;;5008565;28;20442;-81
2023/08/11 08:48:32;;;;;;;3.97;1.00;;;21.20;63.40;;;;;;5028471;28;20049;-81
2023/08/11 08:50:59;;;;;;;6.95;1.20;;;21.20;63.90;;;;;;5011635;28;20108;-82
2023/08/11 08:53:28;;;;;;;4.10;1.35;;;21.20;63.80;;;;;;5012151;28;20061;-82
2023/08/11 08:55:55;;;;;;;5.88;1.23;;;21.30;62.40;;;;;;5024653;28;20132;-81
2023/08/11 08:58:22;;;;;;;12.15;1.88;;;21.20;64.00;;;;;;5005901;28;20072;-81
2023/08/11 09:00:50;;;;;;;12.00;1.40;;;21.20;64.00;;;;;;5028084;28;20632;-81
2023/08/11 09:03:17;;;;;;;4.05;1.05;;;21.30;64.10;;;;;;5026566;28;20182;-82
2023/08/11 09:05:44;;;;;;;3.13;0.98;;;21.30;62.50;;;;;;5027221;28;20096;-81
2023/08/11 09:08:11;;;;;;;2.10;0.88;;;21.20;63.10;;;;;;5008451;28;20450;-82
2023/08/11 09:10:38;;;;;;;7.25;1.27;;;21.30;62.90;;;;;;5007515;28;20053;-81
2023/08/11 09:13:05;;;;;;;2.83;1.10;;;21.30;63.00;;;;;;5011226;28;20136;-81
2023/08/11 09:15:33;;;;;;;6.07;1.40;;;21.30;64.30;;;;;;5009935;28;20136;-81
2023/08/11 09:18:00;;;;;;;8.73;1.50;;;21.40;62.70;;;;;;5007962;28;20115;-79
2023/08/11 09:20:28;;;;;;;3.55;1.10;;;21.50;63.40;;;;;;5023351;28;20076;-79
2023/08/11 09:22:56;;;;;;;4.90;1.20;;;21.50;63.30;;;;;;5009607;28;20045;-80
2023/08/11 09:25:23;;;;;;;8.55;1.50;;;21.50;62.60;;;;;;5010832;28;20084;-81
2023/08/11 09:27:51;;;;;;;22.88;3.13;;;21.60;63.60;;;;;;5029934;28;20049;-81
2023/08/11 09:30:17;;;;;;;28.80;3.50;;;21.80;61.60;;;;;;5001133;28;20496;-82
2023/08/11 09:32:49;;;;;;;22.17;3.47;;;21.90;60.70;;;;;;5012976;28;20045;-81
2023/08/11 09:35:23;;;;;;;5.78;1.50;;;22.10;60.20;;;;;;5030206;28;20065;-82
2023/08/11 09:37:53;;;;;;;2.85;0.95;;;22.20;62.60;;;;;;5019107;28;20046;-81
2023/08/11 09:40:24;;;;;;;8.05;1.15;;;22.50;61.50;;;;;;5029217;28;20088;-82
2023/08/11 09:42:54;;;;;;;5.63;1.10;;;22.60;59.50;;;;;;5010185;28;20056;-83
2023/08/11 09:45:22;;;;;;;8.63;0.90;;;22.60;59.10;;;;;;5013062;28;20045;-83
2023/08/11 09:47:49;;;;;;;2.25;0.70;;;22.60;60.00;;;;;;5013661;28;20081;-83
2023/08/11 09:50:17;;;;;;;1.42;0.90;;;22.70;59.60;;;;;;5013093;28;20041;-84
2023/08/11 09:52:45;;;;;;;3.63;1.40;;;22.70;59.00;;;;;;5008773;28;20119;-83
2023/08/11 09:55:13;;;;;;;2.75;0.88;;;22.80;60.80;;;;;;5027546;28;20057;-83
2023/08/11 09:57:43;;;;;;;5.57;1.00;;;23.00;61.50;;;;;;5012403;28;20045;-85
2023/08/11 10:00:13;;;;;;;5.10;1.30;;;23.20;61.50;;;;;;5006501;28;20049;-83
2023/08/11 10:02:56;;;;;;;4.07;0.90;;;23.40;60.40;;;;;;5011485;28;20119;-83
2023/08/11 10:05:25;;;;;;;3.65;1.00;;;23.50;57.80;;;;;;5007752;28;20060;-82
2023/08/11 10:08:00;;;;;;;4.82;0.98;;;23.50;59.00;;;;;;5012745;28;20126;-82
2023/08/11 10:10:30;;;;;;;5.07;1.15;;;23.60;59.20;;;;;;5019604;28;20073;-82
2023/08/11 10:13:06;;;;;;;2.28;0.90;;;23.50;60.10;;;;;;5006097;28;20097;-82
2023/08/11 10:15:35;;;;;;;4.47;0.98;;;23.70;60.20;;;;;;5008642;28;20673;-83
2023/08/11 10:18:02;;;;;;;3.05;0.68;;;23.90;59.20;;;;;;5009037;28;20050;-82
2023/08/11 10:20:30;;;;;;;6.97;0.80;;;24.20;58.40;;;;;;5010300;28;20046;-82
2023/08/11 10:22:57;;;;;;;5.13;1.05;;;24.20;57.90;;;;;;5011456;28;20567;-83
2023/08/11 10:25:25;;;;;;;6.50;1.50;;;24.80;57.40;;;;;;5016379;28;20057;-88
2023/08/11 10:27:54;;;;;;;15.85;1.17;;;25.30;56.80;;;;;;5014202;28;20057;-89
2023/08/11 10:30:22;;;;;;;5.07;1.08;;;25.50;56.50;;;;;;5034154;28;20053;-90
2023/08/11 10:33:03;;;;;;;9.27;0.82;;;25.60;57.20;;;;;;5014739;28;20061;-90
2023/08/11 10:35:53;;;;;;;4.78;1.27;;;25.50;56.00;;;;;;5009832;28;20064;-89
2023/08/11 10:38:32;;;;;;;4.50;1.13;;;25.90;56.00;;;;;;5012972;28;20059;-90
2023/08/11 10:41:08;;;;;;;1.30;0.80;;;25.70;55.40;;;;;;5029085;28;20682;-90
2023/08/11 10:43:40;;;;;;;6.50;0.90;;;25.50;55.60;;;;;;5017723;28;20041;-92
2023/08/11 10:46:44;;;;;;;5.90;1.00;;;25.30;56.30;;;;;;5016526;28;20049;-92
2023/08/11 10:49:14;;;;;;;4.20;0.90;;;25.50;56.10;;;;;;5005742;28;20053;-91
2023/08/11 10:51:42;;;;;;;1.52;1.00;;;25.10;56.00;;;;;;5007089;28;20548;-89
2023/08/11 10:54:10;;;;;;;2.13;0.80;;;25.30;57.20;;;;;;5004921;28;20514;-90
2023/08/11 10:56:43;;;;;;;2.83;1.10;;;25.20;58.10;;;;;;5006005;28;20049;-89
2023/08/11 10:59:28;;;;;;;2.25;0.77;;;25.10;58.30;;;;;;5028387;28;20057;-87
2023/08/11 11:01:56;;;;;;;3.55;0.80;;;24.90;57.90;;;;;;5012574;28;20060;-88
2023/08/11 11:04:29;;;;;;;2.72;1.25;;;24.70;57.10;;;;;;5030676;28;20045;-82
2023/08/11 11:06:58;;;;;;;2.33;0.68;;;24.60;58.70;;;;;;5004973;28;20580;-82
2023/08/11 11:09:27;;;;;;;4.65;0.90;;;24.40;57.50;;;;;;5006188;28;20041;-83
2023/08/11 11:11:55;;;;;;;5.60;0.60;;;24.40;58.30;;;;;;5007363;28;20050;-85
2023/08/11 11:14:22;;;;;;;3.85;0.82;;;24.20;58.50;;;;;;5008333;28;20058;-85
2023/08/11 11:16:49;;;;;;;2.40;0.90;;;24.20;59.80;;;;;;5013212;28;20553;-82
2023/08/11 11:19:16;;;;;;;5.93;0.95;;;24.10;59.40;;;;;;5032326;28;20057;-81
2023/08/11 11:21:43;;;;;;;11.55;0.93;;;23.90;59.50;;;;;;5013617;28;20103;-83
2023/08/11 11:24:10;;;;;;;3.08;0.80;;;23.80;59.10;;;;;;5009107;28;20778;-83
2023/08/11 11:26:37;;;;;;;4.28;0.60;;;23.70;60.70;;;;;;5011121;28;20073;-82
2023/08/11 11:29:05;;;;;;;3.33;0.85;;;23.60;61.20;;;;;;5010068;28;20099;-82
2023/08/11 11:31:35;;;;;;;1.73;0.60;;;23.40;60.70;;;;;;5012221;28;20746;-82
2023/08/11 11:34:05;;;;;;;3.00;0.68;;;23.30;61.60;;;;;;5026398;28;20089;-82
2023/08/11 11:36:33;;;;;;;4.47;0.80;;;23.50;61.70;;;;;;5014777;28;20401;-80
2023/08/11 11:39:00;;;;;;;4.43;0.70;;;23.50;61.80;;;;;;5013869;28;20096;-80
2023/08/11 11:41:31;;;;;;;2.35;0.90;;;23.30;62.00;;;;;;5030842;28;20061;-82
2023/08/11 11:43:59;;;;;;;9.82;2.67;;;23.20;62.40;;;;;;5011144;28;20046;-85
2023/08/11 11:46:26;;;;;;;2.10;0.95;;;23.30;62.20;;;;;;5029708;28;20124;-83
2023/08/11 11:48:54;;;;;;;2.65;1.00;;;23.20;61.90;;;;;;5025879;28;20053;-79
2023/08/11 11:51:25;;;;;;;3.03;1.23;;;23.30;62.30;;;;;;5026947;28;20048;-81
2023/08/11 11:53:55;;;;;;;2.30;0.93;;;23.40;62.50;;;;;;5011999;28;20136;-81
2023/08/11 11:56:22;;;;;;;2.15;1.10;;;23.30;62.50;;;;;;5015039;28;20112;-82
2023/08/11 11:58:51;;;;;;;2.97;1.00;;;23.30;62.10;;;;;;5029271;28;20049;-82
2023/08/11 12:01:21;;;;;;;4.35;1.30;;;23.40;61.70;;;;;;5000715;28;20112;-81
2023/08/11 12:03:50;;;;;;;1.92;1.05;;;23.80;63.40;;;;;;5022801;28;20049;-84
2023/08/11 12:06:18;;;;;;;2.13;1.20;;;24.00;63.40;;;;;;5026429;28;20058;-83
2023/08/11 12:08:48;;;;;;;6.28;1.08;;;24.50;61.20;;;;;;5028809;28;20041;-82
2023/08/11 12:11:24;;;;;;;9.43;1.20;;;24.50;61.40;;;;;;5012096;28;20069;-84
2023/08/11 12:13:51;;;;;;;4.45;1.42;;;24.80;61.00;;;;;;5007322;28;20051;-81
2023/08/11 12:16:19;;;;;;;4.03;1.30;;;25.20;60.10;;;;;;5005252;28;20537;-85
2023/08/11 12:18:47;;;;;;;4.28;1.45;;;25.40;61.20;;;;;;5029563;28;20041;-83
2023/08/11 12:21:16;;;;;;;3.92;1.17;;;25.60;60.10;;;;;;5014159;28;20076;-86
2023/08/11 12:23:42;;;;;;;5.00;1.13;;;26.00;59.20;;;;;;5012289;28;20088;-78
2023/08/11 12:26:09;;;;;;;7.13;1.42;;;26.40;59.50;;;;;;5027271;28;20523;-82
2023/08/11 12:28:36;;;;;;;3.42;1.48;;;26.90;58.50;;;;;;5025081;28;20049;-81
2023/08/11 12:31:03;;;;;;;4.05;1.77;;;27.20;55.30;;;;;;5022271;28;20053;-80
2023/08/11 12:33:30;;;;;;;4.93;1.25;;;27.60;56.30;;;;;;5031481;28;20046;-80
2023/08/11 12:35:58;;;;;;;4.93;1.52;;;27.80;55.20;;;;;;5029395;28;20160;-80
2023/08/11 12:38:25;;;;;;;4.22;2.00;;;27.70;55.80;;;;;;5032557;28;20163;-80
2023/08/11 12:40:52;;;;;;;9.98;1.85;;;27.70;55.00;;;;;;5006203;28;20236;-81
2023/08/11 12:43:19;;;;;;;3.70;1.50;;;27.60;56.40;;;;;;5009689;28;20055;-80
2023/08/11 12:45:46;;;;;;;8.63;2.03;;;27.50;54.10;;;;;;5013291;28;20041;-80
2023/08/11 12:48:14;;;;;;;54.58;8.88;;;27.10;56.20;;;;;;5031787;28;20048;-80
2023/08/11 12:50:41;;;;;;;3.22;1.67;;;27.50;57.70;;;;;;5029774;28;20049;-80
2023/08/11 12:53:09;;;;;;;6.25;1.80;;;27.50;57.10;;;;;;5014138;28;20099;-79
2023/08/11 12:55:39;;;;;;;4.80;2.00;;;27.50;55.80;;;;;;5028224;28;20057;-76
2023/08/11 12:58:07;;;;;;;2.38;1.83;;;27.80;55.80;;;;;;5004408;28;20061;-77